METAR Data

Data at: 0225 UTC 16 Jan 2019

METAR for:KORD (Chicago/O'Hare Intl, IL, US)
Text:KORD 160151Z 23012G20KT 7SM OVC008 M02/M03 A3003 RMK AO2 SLP176 T10171028
Temperature: -1.7°C ( 29°F)
Dewpoint: -2.8°C ( 27°F) [RH = 92%]
Pressure (altimeter):30.03 inches Hg (1017.0 mb) [Sea level pressure: 1017.6 mb]
Winds:from the SW (230 degrees) at 14 MPH (12 knots; 6.2 m/s) gusting to 23 MPH (20 knots; 10.3 m/s)
Visibility: 7 sm ( 11 km)
Ceiling:800 feet AGL
Clouds: overcast cloud deck at 800 feet AGL